Friday, October 31, 2014
04:08 UTC
  |  Log In   |  Register Free
Airport Search:

Madison Airport
(KI39)

Madison Airport Diagram
No Airport Diagram Available

FAA data valid effective September 18, 2014 - November 13, 2014 (unless otherwise noted).

 
 
 
 
 
 
 
 
 
 
 
 
 
 

Current Aviation Weather for Madison Airport (KI39)

The most recent METAR observation for KI39 was updated at: 0308
METAR Summary (Translated METAR)
KI39
310255Z AUTO 00000KT 10SM CLR 04/01 A3005 RMK AO2
KDVK
310255Z AUTO 00000KT 10SM CLR 03/02 A3007 RMK AO2
(21 nm SW from KI39)
KLEX
310254Z 00000KT 8SM CLR 06/02 A3006 RMK AO2 SLP179 T00560017 56006 $
(27.6 nm NW from KI39)
TAF Summary (Translated TAF)
KLEX
(28.6 nm NE from KDVK)
301720Z 3018/3118 VRB03KT P6SM BKN035 FM302100 VRB03KT P6SM FEW035 SCT100 FM310600 VRB03KT P6SM BKN040 FM311100 VRB03KT P6SM VCSH BKN040 FM311600 30008KT P6SM VCSH BKN025
  Airport Weather Conditions for KI39

 Current Weather at I39
39° F
Fair
North winds at 0.0 mph
I39 NOAA Radar

Pressure: 30.05 in
Humidity: 81%
Wind: Calm
Dew Point: 33.8°F
Visibility: 10.00 mi


Airport Weather Forecast for KI39

Translated METAR and TAF for KDVK
Translated METAR for KDVK (0403 UTC 31 October 2014)
found at http://aviationweather.gov/adds/metars/
 
METAR text: KDVK 310355Z AUTO 00000KT 7SM SCT100 02/02 A3006 RMK AO2
Conditions at: KDVK (DANVILLE , KY, US) observed 0355 UTC 31 October 2014
Temperature: 2.0°C (36°F)
Dewpoint: 2.0°C (36°F) [RH = 100%]
Pressure (altimeter): 30.06 inches Hg (1018.0 mb)
Winds: calm
Visibility: 7 miles (11 km)
Ceiling: at least 12,000 feet AGL
Clouds: scattered clouds at 10000 feet AGL
Weather: automated observation with no human augmentation;
there may or may not be significant weather present at this time
Translated TAF for KDVK

There is no translated TAF available for this airport

Find All Airport Services Find A Hotel Find A Rental Car Find A Golf Course Find A Restaurant $100 Hamburger



FBO's on the Field
FBO Company Facility Photos Services Transportation Aviation Fuel Prices: Prices include tax
Catering Weather Repair Courtesy Rental Type 100LL JetA JetA+ MOGAS 8087
 
Eastern Kentucky University

This FBO has not yet been rated
FS:Shell
Last Updated: Oct-10
Login to update fuel prices
SS:
Contact Eastern Kentucky UniversityMore FBO Information
 
Add another FBO Facility Photos Catering Weather Repair Courtesy Rental Type 100LL JetA JetA+ MOGAS 8087
Services Transportation Aviation Fuel Prices: Prices include tax


model-print
model-print
model-print
model-print